createdAt,value
2023-05-03T00:01:35.806Z,7.90
2023-05-03T00:06:37.943Z,7.90
2023-05-03T00:11:35.243Z,7.90
2023-05-03T00:16:35.217Z,7.85
2023-05-03T00:21:32.121Z,7.86
2023-05-03T00:26:28.978Z,7.89
2023-05-03T00:31:25.445Z,7.84
2023-05-03T00:36:21.993Z,7.82
2023-05-03T00:41:19.678Z,7.75
2023-05-03T00:46:17.680Z,7.70
2023-05-03T00:51:15.116Z,7.72
2023-05-03T00:56:16.498Z,7.67
2023-05-03T01:01:13.036Z,7.54
2023-05-03T01:06:37.332Z,7.61
2023-05-03T01:11:52.442Z,7.52
2023-05-03T01:16:58.891Z,7.45
2023-05-03T01:22:07.817Z,7.42
2023-05-03T01:27:05.368Z,7.38
2023-05-03T01:32:05.269Z,7.39
2023-05-03T01:37:03.258Z,7.34
2023-05-03T01:42:02.046Z,7.34
2023-05-03T01:46:58.528Z,7.34
2023-05-03T01:51:55.081Z,7.36
2023-05-03T01:56:51.791Z,7.38
2023-05-03T02:01:48.291Z,7.43
2023-05-03T02:06:44.849Z,7.49
2023-05-03T02:11:41.606Z,7.49
2023-05-03T02:16:39.095Z,7.54
2023-05-03T02:21:37.821Z,7.66
2023-05-03T02:26:34.303Z,7.75
2023-05-03T02:31:30.912Z,7.84
2023-05-03T02:36:27.712Z,7.82
2023-05-03T02:41:24.219Z,7.92
2023-05-03T02:46:20.894Z,7.99
2023-05-03T02:51:19.808Z,8.07
2023-05-03T02:56:16.534Z,8.10
2023-05-03T03:01:13.193Z,8.10
2023-05-03T03:06:09.774Z,8.15
2023-05-03T03:11:06.890Z,8.18
2023-05-03T03:16:03.673Z,8.23
2023-05-03T03:21:03.313Z,8.27
2023-05-03T03:26:00.061Z,8.25
2023-05-03T03:30:56.988Z,8.32
2023-05-03T03:35:54.608Z,8.30
2023-05-03T03:40:52.268Z,8.31
2023-05-03T03:45:48.932Z,8.31
2023-05-03T03:50:45.602Z,8.37
2023-05-03T03:55:57.286Z,8.31
2023-05-03T04:00:53.824Z,8.35
2023-05-03T04:05:51.458Z,8.35
2023-05-03T04:10:56.335Z,8.31
2023-05-03T04:16:23.510Z,8.26
2023-05-03T04:21:42.696Z,8.24
2023-05-03T04:26:40.384Z,8.41
2023-05-03T04:31:37.207Z,8.53
2023-05-03T04:36:34.410Z,8.56
2023-05-03T04:41:30.954Z,8.65
2023-05-03T04:46:27.719Z,8.72
2023-05-03T04:51:24.316Z,8.73
2023-05-03T04:56:26.026Z,8.79
2023-05-03T05:25:39.085Z,9.09
2023-05-03T13:53:43.958Z,13.94
2023-05-03T14:05:01.614Z,13.64
2023-05-03T14:28:44.100Z,13.67
2023-05-03T14:33:41.024Z,13.78
2023-05-03T14:38:37.675Z,13.96
2023-05-03T14:43:37.622Z,14.02
2023-05-03T14:48:34.108Z,13.98
2023-05-03T14:53:30.892Z,13.95
2023-05-03T14:58:27.532Z,13.89
2023-05-03T15:03:24.559Z,13.84
2023-05-03T15:08:30.027Z,13.81
2023-05-03T15:13:31.875Z,13.76
2023-05-03T15:18:28.539Z,13.78
2023-05-03T15:23:25.080Z,13.81
2023-05-03T15:28:21.651Z,13.82
2023-05-03T15:33:18.342Z,13.88
2023-05-03T15:38:14.832Z,13.95
2023-05-03T15:43:11.260Z,13.92
2023-05-03T15:48:07.938Z,13.93
2023-05-03T15:53:04.440Z,13.93
2023-05-03T15:58:00.942Z,13.86
2023-05-03T16:02:58.057Z,13.84
2023-05-03T16:08:00.514Z,13.82
2023-05-03T16:12:57.065Z,13.75
2023-05-03T16:17:54.249Z,13.72
2023-05-03T16:22:59.573Z,13.50
2023-05-03T16:28:02.146Z,13.46
2023-05-03T16:40:25.212Z,13.42
2023-05-03T16:45:22.662Z,13.40
2023-05-03T17:02:18.208Z,13.20
2023-05-03T17:18:54.748Z,13.24
2023-05-03T17:23:53.257Z,13.12
2023-05-03T17:28:51.610Z,13.16
2023-05-03T17:33:49.211Z,13.05
2023-05-03T17:38:45.792Z,13.05
2023-05-03T17:43:42.812Z,12.89
2023-05-03T17:48:44.048Z,12.94
2023-05-03T17:53:41.632Z,12.87
2023-05-03T17:58:38.172Z,12.84
2023-05-03T18:03:36.614Z,12.78
2023-05-03T18:08:33.227Z,12.74
2023-05-03T20:29:09.971Z,10.76
2023-05-03T20:34:06.709Z,10.65
2023-05-03T20:39:14.245Z,10.68
2023-05-03T20:44:12.440Z,10.64
2023-05-03T20:49:41.586Z,10.58
2023-05-03T21:13:08.508Z,10.22
2023-05-03T21:24:16.549Z,10.03
2023-05-03T21:42:07.937Z,10.03
2023-05-03T22:18:37.995Z,9.67
2023-05-03T22:23:37.117Z,9.55
2023-05-03T22:39:36.180Z,9.41
2023-05-03T22:44:33.356Z,9.33
2023-05-03T22:49:29.907Z,9.29
2023-05-03T22:54:27.064Z,9.23
2023-05-03T22:59:23.599Z,9.18
2023-05-03T23:04:20.173Z,9.16
2023-05-03T23:09:16.702Z,9.08
2023-05-03T23:14:13.189Z,9.11
2023-05-03T23:19:09.927Z,8.97
2023-05-03T23:24:07.169Z,8.91
2023-05-03T23:29:03.706Z,8.89
2023-05-03T23:34:00.427Z,8.92
2023-05-03T23:38:57.250Z,8.73
2023-05-03T23:43:53.738Z,8.69
2023-05-03T23:48:50.434Z,8.78
2023-05-03T23:53:47.031Z,8.70
2023-05-03T23:59:21.716Z,8.63
